This is the latest recevied weather packets stored in our database for station/object K3PPP. If no packets are shown the sender has not sent any weather packets the latest 10 day(s).
| Time | Temp. | Humidity | Pressure | Rain* | Wind** | Luminosity | Snow |
|---|---|---|---|---|---|---|---|
| 1777572430 | 6.11° C | 92% | 1011.8 hPa | 0 mm | - | 116 W/m² | - |
| 1777572126 | 6.67° C | 91% | 1011.8 hPa | 0 mm | - | 105 W/m² | - |
| 1777571821 | 7.78° C | 90% | 1011.7 hPa | 0 mm | - | 248 W/m² | - |
| 1777571518 | 6.67° C | 92% | 1012.1 hPa | 0 mm | - | 453 W/m² | - |
| 1777571215 | 6.11° C | 93% | 1011.8 hPa | 0 mm | - | 797 W/m² | - |
| 1777570910 | 6.11° C | 93% | 1011.7 hPa | 0 mm | - | 141 W/m² | - |
| 1777570605 | 7.22° C | 94% | 1011.6 hPa | 0 mm | - | 243 W/m² | - |
| 1777570303 | 6.67° C | 96% | 1011.5 hPa | 0 mm | - | 297 W/m² | - |
| 1777569998 | 6.67° C | 96% | 1011.5 hPa | 0 mm | - | 218 W/m² | - |
| 1777569689 | 6.11° C | 97% | 1011.8 hPa | 0 mm | - | 372 W/m² | - |
| 1777569385 | 6.11° C | 98% | 1011.6 hPa | 0 mm | - | 229 W/m² | - |
| 1777569081 | 6.11° C | 98% | 1011.6 hPa | 0 mm | - | 148 W/m² | - |
| 1777568778 | 6.11° C | 97% | 1011.7 hPa | 0 mm | - | 105 W/m² | - |
| 1777568476 | 6.11° C | 98% | 1011.8 hPa | 0 mm | - | 161 W/m² | - |
| 1777568172 | 5.56° C | 97% | 1011.7 hPa | 0 mm | - | 376 W/m² | - |
| 1777567869 | 5.56° C | 97% | 1011.7 hPa | 1.78 mm | - | 288 W/m² | - |
| 1777567565 | 6.11° C | 96% | 1011.6 hPa | 1.78 mm | - | 125 W/m² | - |
| 1777567262 | 6.67° C | 96% | 1011.5 hPa | 0 mm | - | 186 W/m² | - |
| 1777566960 | 6.11° C | 96% | 1011.5 hPa | 1.27 mm | - | 284 W/m² | - |
| 1777566657 | 5.56° C | 94% | 1011.6 hPa | 1.27 mm | - | 326 W/m² | - |
| 1777566355 | 6.11° C | 92% | 1012.1 hPa | 0 mm | - | 152 W/m² | - |
| 1777566052 | 6.11° C | 92% | 1011.7 hPa | 0 mm | - | 177 W/m² | - |
| 1777565748 | 6.67° C | 89% | 1011.7 hPa | 0 mm | - | 99 W/m² | - |
| 1777565444 | 8.33° C | 85% | 1011.6 hPa | 0 mm | - | 161 W/m² | - |
| 1777565140 | 8.33° C | 87% | 1011.6 hPa | 0 mm | - | 496 W/m² | - |
* Rain latest hour (hover to see other rain measurements)
** Current wind speed in m/s (hover to see current wind gust speed)